D/T METAR WX W/DIR W/SPE G/SPE TEMP DEWP
16/01/19 03:50 EGQS 160350Z 25010KT 9999 SCT030 BKN070 07/04 Q0992 BLU WSW (250°) 11.5mph 7°C 4°C
16/01/19 02:50 EGQS 160250Z 26011KT 9999 SCT044 OVC100 07/04 Q0993 BLU W (260°) 12.7mph 7°C 4°C
16/01/19 01:50 EGQS 160150Z 25013KT CAVOK 08/04 Q0993 BLU WSW (250°) 15.0mph 8°C 4°C
16/01/19 00:50 EGQS 160050Z 25019KT CAVOK 08/05 Q0993 BLU WSW (250°) 21.9mph 8°C 5°C
15/01/19 23:50 EGQS 152350Z 25014KT 9999 -RADZ FEW009 SCT013 BKN038 09/08 Q0992 GRN -RA -DZ WSW (250°) 16.1mph 9°C 8°C
15/01/19 22:50 EGQS 152250Z 23015KT 9999 BKN038 10/07 Q0992 BLU SW (230°) 17.3mph 10°C 7°C
15/01/19 21:50 EGQS 152150Z 23011KT 9999 BKN040 10/06 Q0994 BLU SW (230°) 12.7mph 10°C 6°C
15/01/19 20:50 EGQS 152050Z 23012KT 9999 BKN042 09/06 Q0995 BLU SW (230°) 13.8mph 9°C 6°C
15/01/19 19:50 EGQS 151950Z 24016KT 9999 BKN041 09/06 Q0996 BLU WSW (240°) 18.4mph 9°C 6°C
15/01/19 18:50 EGQS 151850Z 24014KT 9999 FEW030 BKN048 09/06 Q0997 BLU WSW (240°) 16.1mph 9°C 6°C
15/01/19 17:50 EGQS 151750Z 23011KT CAVOK 08/05 Q0998 BLU NOSIG SW (230°) 12.7mph 8°C 5°C
15/01/19 16:50 EGQS 151650Z 24012KT 9999 -RA SCT025 BKN050 09/07 Q0999 BLU NOSIG -RA WSW (240°) 13.8mph 9°C 7°C
15/01/19 15:50 EGQS 151550Z 23009KT 9999 FEW032 SCT048 BKN080 09/08 Q1000 BLU NOSIG SW (230°) 10.4mph 9°C 8°C
15/01/19 15:04 EGQS 151504Z 14005KT 9999 FEW005 SCT040 BKN050 07/07 Q1000 BLU NOSIG SE (140°) 5.8mph 7°C 7°C
15/01/19 14:33 EGQS 151433Z 15007KT 9999 5000S -RA FEW002 SCT024 BKN040 08/07 Q1001 WHT TEMPO 9999 NSW FEW024 BLU -RA SSE (150°) 8.1mph 8°C 7°C
15/01/19 14:22 EGQS 151422Z 15006KT 9999 5000S -RA SCT004 SCT011 BKN025 08/07 Q1001 YLO2 BECMG 9999 NSW BKN015 WHT -RA SSE (150°) 6.9mph 8°C 7°C
15/01/19 13:50 EGQS 151350Z 12004KT 8000 4000S -RA SCT003 SCT015 BKN025 08/07 Q1002 YLO2 BECMG 9999 NSW BKN015 WHT -RA ESE (120°) 4.6mph 8°C 7°C
15/01/19 12:45 EGQS 151245Z 15002KT 2500 RADZ FEW003 BKN005 07/07 Q1003 YLO1 TEMPO 2000 SCT004 YLO2 RA DZ SSE (150°) 2.3mph 7°C 7°C
15/01/19 11:58 EGQS 151158Z 23002KT 2500 RADZ SCT012 BKN022 08/07 Q1003 YLO1 TEMPO 2000 YLO2 RA DZ SW (230°) 2.3mph 8°C 7°C
15/01/19 10:50 EGQS 151050Z 23006KT 9999 7000S -RADZ SCT022 BKN035 08/06 Q1004 WHT NOSIG -RA DZ SW (230°) 6.9mph 8°C 6°C
15/01/19 09:50 EGQS 150950Z 29007KT 9999 7000S -RA SCT025 BKN035 BKN050 08/06 Q1005 WHT TEMPO SCT018 WHT -RA WNW (290°) 8.1mph 8°C 6°C
15/01/19 09:34 EGQS 150934Z 30007KT 9999 7000S -RA SCT025 BKN035 BKN050 08/06 Q1005 WHT TEMPO SCT018 WHT -RA WNW (300°) 8.1mph 8°C 6°C
15/01/19 08:50 EGQS 150850Z 29008KT 9999 -RA SCT028 BKN060 08/06 Q1005 BLU TEMPO SCT024 WHT -RA WNW (290°) 9.2mph 8°C 6°C
15/01/19 08:24 EGQS 150824Z 28006KT 9999 -RA SCT027 BKN060 08/06 Q1005 BLU TEMPO SCT024 WHT -RA W (280°) 6.9mph 8°C 6°C
15/01/19 07:50 EGQS 150750Z 26006KT 9999 -RA SCT024 BKN040 BKN060 08/06 Q1005 WHT TEMPO 7000 RA WHT -RA W (260°) 6.9mph 8°C 6°C
15/01/19 06:50 EGQS 150650Z 29010KT 9999 FEW025 BKN040 08/06 Q1005 BLU NOSIG WNW (290°) 11.5mph 8°C 6°C
15/01/19 05:50 EGQS 150550Z 29020KT 9999 FEW029 08/06 Q1005 BLU WNW (290°) 23.0mph 8°C 6°C
15/01/19 04:50 EGQS 150450Z 29019KT 8000 -RADZ FEW012 SCT022 BKN037 08/07 Q1005 WHT -RA -DZ WNW (290°) 21.9mph 8°C 7°C
15/01/19 04:45 EGQS 150445Z 28019KT 4200 RADZ FEW012 SCT020 OVC035 09/07 Q1005 GRN RA DZ W (280°) 21.9mph 9°C 7°C
15/01/19 03:50 EGQS 150350Z 25017KT 9999 SCT028 10/07 Q1004 BLU WSW (250°) 19.6mph 10°C 7°C
15/01/19 02:50 EGQS 150250Z 25017KT 9999 FEW038 BKN046 10/07 Q1005 BLU WSW (250°) 19.6mph 10°C 7°C
15/01/19 01:50 EGQS 150150Z 24014KT 9999 -RA OVC050 09/07 Q1005 BLU -RA WSW (240°) 16.1mph 9°C 7°C
15/01/19 00:50 EGQS 150050Z 24013KT CAVOK 08/06 Q1006 BLU WSW (240°) 15.0mph 8°C 6°C
14/01/19 23:50 EGQS 142350Z 25013KT 9999 -RA SCT049 BKN100 08/06 Q1007 BLU -RA WSW (250°) 15.0mph 8°C 6°C
14/01/19 22:50 EGQS 142250Z 25011KT CAVOK 08/05 Q1007 BLU WSW (250°) 12.7mph 8°C 5°C
14/01/19 21:50 EGQS 142150Z 24010KT 9999 FEW040 BKN120 06/04 Q1008 BLU WSW (240°) 11.5mph 6°C 4°C
14/01/19 20:50 EGQS 142050Z 22007KT 9999 SCT034 BKN042 06/03 Q1010 BLU SW (220°) 8.1mph 6°C 3°C
14/01/19 19:50 EGQS 141950Z 24012KT 9999 OVC047 06/04 Q1011 BLU WSW (240°) 13.8mph 6°C 4°C
14/01/19 18:50 EGQS 141850Z 24011KT CAVOK 05/03 Q1012 BLU NOSIG WSW (240°) 12.7mph 5°C 3°C
14/01/19 17:50 EGQS 141750Z 24008KT 9999 FEW040 BKN070 05/02 Q1012 BLU NOSIG WSW (240°) 9.2mph 5°C 2°C
14/01/19 16:50 EGQS 141650Z 25013KT CAVOK 06/02 Q1013 BLU NOSIG WSW (250°) 15.0mph 6°C 2°C
14/01/19 15:50 EGQS 141550Z 25010KT 9999 FEW020 BKN080 05/02 Q1013 BLU NOSIG WSW (250°) 11.5mph 5°C 2°C
14/01/19 14:50 EGQS 141450Z 26016KT 9999 FEW020 BKN110 05/02 Q1014 BLU NOSIG W (260°) 18.4mph 5°C 2°C
14/01/19 13:50 EGQS 141350Z 25015KT 9999 FEW030 SCT050 BKN120 05/02 Q1014 BLU NOSIG WSW (250°) 17.3mph 5°C 2°C
14/01/19 12:50 EGQS 141250Z 24012KT 9999 FEW020 BKN050 04/01 Q1014 BLU NOSIG WSW (240°) 13.8mph 4°C 1°C
14/01/19 11:50 EGQS 141150Z 21006KT 9999 FEW020 04/01 Q1015 BLU NOSIG SSW (210°) 6.9mph 4°C 1°C
14/01/19 10:50 EGQS 141050Z 23005KT 9999 FEW020 02/00 Q1016 BLU NOSIG SW (230°) 5.8mph 2°C 0°C
14/01/19 09:50 EGQS 140950Z 24010KT 9999 FEW020 01/M01 Q1017 BLU NOSIG WSW (240°) 11.5mph 1°C -1°C
14/01/19 08:50 EGQS 140850Z 24009KT 9999 FEW018 M00/M01 Q1017 BLU NOSIG WSW (240°) 10.4mph 0°C -1°C
14/01/19 07:50 EGQS 140750Z 24009KT 9999 FEW020 M00/M01 Q1017 BLU NOSIG WSW (240°) 10.4mph 0°C -1°C
14/01/19 06:50 EGQS 140650Z 24008KT 9999 FEW042 M00/M02 Q1016 BLU NOSIG WSW (240°) 9.2mph 0°C -2°C
14/01/19 05:50 EGQS 140550Z 30009KT 9999 FEW018 02/M00 Q1016 BLU WNW (300°) 10.4mph 2°C 0°C
14/01/19 04:50 EGQS 140450Z 31010KT 9999 FEW018 SCT035 03/00 Q1016 BLU NW (310°) 11.5mph 3°C 0°C
14/01/19 03:50 EGQS 140350Z 31010KT 9999 FEW020 SCT080 03/00 Q1015 BLU NW (310°) 11.5mph 3°C 0°C
14/01/19 02:50 EGQS 140250Z 31009KT 9999 FEW020 SCT038 BKN080 03/00 Q1015 BLU NW (310°) 10.4mph 3°C 0°C
14/01/19 01:50 EGQS 140150Z 34011KT 9999 FEW022 SCT040 BKN070 03/M00 Q1015 BLU NNW (340°) 12.7mph 3°C 0°C
14/01/19 00:50 EGQS 140050Z 36012KT 9999 FEW018 SCT026 BKN038 03/01 Q1014 BLU N (360°) 13.8mph 3°C 1°C
13/01/19 23:50 EGQS 132350Z 02012KT 9999 FEW012 BKN016 BKN040 03/02 Q1013 WHT NNE (20°) 13.8mph 3°C 2°C
13/01/19 22:50 EGQS 132250Z 03014KT 5000 -SHRA BKN018 BKN022 OVC034 04/02 Q1011 WHT -SHRA NNE (30°) 16.1mph 4°C 2°C
13/01/19 21:50 EGQS 132150Z 04014KT 9999 -SHRA FEW011 SCT018 BKN022 04/02 Q1010 WHT -SHRA NE (40°) 16.1mph 4°C 2°C
13/01/19 20:50 EGQS 132050Z 04014KT 5000 -SHRA SCT011 SCT018CB BKN030 05/03 Q1008 RESHGS GRN -SHRA NE (40°) 16.1mph 5°C 3°C
13/01/19 19:50 EGQS 131950Z 29017KT 6000 SHRA FEW018 BKN025 BKN030 06/04 Q1006 WHT SHRA WNW (290°) 19.6mph 6°C 4°C
13/01/19 18:50 EGQS 131850Z 29018KT 9999 FEW020CB SCT026 BKN034 06/04 Q1005 BLU WNW (290°) 20.7mph 6°C 4°C
13/01/19 17:50 EGQS 131750Z 28014KT 9999 -SHRA FEW020CB SCT022 BKN026 07/04 Q1004 WHT -SHRA W (280°) 16.1mph 7°C 4°C
13/01/19 16:50 EGQS 131650Z 28020KT 9999 VCSH FEW018CB SCT090 06/04 Q1003 BLU VCSH W (280°) 23.0mph 6°C 4°C
13/01/19 15:50 EGQS 131550Z 29019KT 9999 -SHRA FEW020CB BKN023 BKN047 06/04 Q1002 WHT -SHRA WNW (290°) 21.9mph 6°C 4°C
13/01/19 14:50 EGQS 131450Z 29022KT 9999 -SHRA FEW020CB SCT025 BKN050 07/04 Q1002 BLU -SHRA WNW (290°) 25.3mph 7°C 4°C
13/01/19 13:50 EGQS 131350Z 28016G28KT 9999 FEW018CB SCT045 07/04 Q1001 BLU W (280°) 18.4mph 32.2mph 7°C 4°C
13/01/19 12:50 EGQS 131250Z 28019KT 9999 FEW020 SCT048 07/04 Q1001 BLU W (280°) 21.9mph 7°C 4°C
13/01/19 11:50 EGQS 131150Z 28016KT 9999 FEW020 SCT035 BKN045 07/05 Q1001 BLU W (280°) 18.4mph 7°C 5°C
13/01/19 10:50 EGQS 131050Z 28020KT 9999 VCSH FEW020 SCT034 07/04 Q1001 BLU VCSH W (280°) 23.0mph 7°C 4°C
13/01/19 09:50 EGQS 130950Z 28020KT 9999 VCSH FEW023 SCT035 08/05 Q1001 BLU VCSH W (280°) 23.0mph 8°C 5°C
13/01/19 08:50 EGQS 130850Z 29028G38KT 9999 SCT031 BKN040 08/04 Q1000 BLU WNW (290°) 32.2mph 43.7mph 8°C 4°C
13/01/19 07:50 EGQS 130750Z 28019KT 9999 -SHRA SCT029 SCT050 08/05 Q1000 BLU -SHRA W (280°) 21.9mph 8°C 5°C
13/01/19 06:50 EGQS 130650Z 28027G39KT 9999 FEW027 SCT031 BKN050 09/05 Q1000 BLU W (280°) 31.1mph 44.9mph 9°C 5°C
13/01/19 05:54 EGQS 130554Z 27014KT 9999 BKN029 09/06 Q1000 BLU W (270°) 16.1mph 9°C 6°C
13/01/19 04:50 EGQS 130450Z 26020KT 9999 BKN032 11/08 Q1000 BLU W (260°) 23.0mph 11°C 8°C
13/01/19 03:50 EGQS 130350Z 25023KT 9999 FEW027 BKN035 10/08 Q1001 BLU WSW (250°) 26.5mph 10°C 8°C
13/01/19 02:50 EGQS 130250Z 25021KT 9999 OVC025 10/09 Q1002 BLU WSW (250°) 24.2mph 10°C 9°C
13/01/19 01:50 EGQS 130150Z 26021G31KT 9999 BKN025 10/09 Q1003 BLU W (260°) 24.2mph 35.7mph 10°C 9°C
13/01/19 00:50 EGQS 130050Z 25022KT 9999 SCT032 BKN049 10/09 Q1003 RERA BLU WSW (250°) 25.3mph 10°C 9°C
12/01/19 23:50 EGQS 122350Z 26023KT 9999 -RA BKN030 10/08 Q1004 RERA BLU -RA W (260°) 26.5mph 10°C 8°C
12/01/19 22:50 EGQS 122250Z 26023G33KT 9999 SCT034 BKN060 10/08 Q1004 BLU W (260°) 26.5mph 38.0mph 10°C 8°C
12/01/19 21:50 EGQS 122150Z 26021KT 9999 BKN032 BKN060 11/08 Q1005 BLU W (260°) 24.2mph 11°C 8°C
12/01/19 20:50 EGQS 122050Z 25019KT 9999 BKN030 BKN070 11/08 Q1005 BLU WSW (250°) 21.9mph 11°C 8°C
12/01/19 19:50 EGQS 121950Z 26019KT 9999 SCT026 BKN033 10/08 Q1007 RESHRA BLU W (260°) 21.9mph 10°C 8°C
12/01/19 18:50 EGQS 121850Z 26016KT 7000 RA BKN025 OVC030 10/08 Q1007 WHT RA W (260°) 18.4mph 10°C 8°C
12/01/19 17:50 EGQS 121750Z 26015KT 7000 RA BKN023 BKN060 BKN080 09/08 Q1008 WHT RA W (260°) 17.3mph 9°C 8°C
12/01/19 16:50 EGQS 121650Z 26013KT 9999 -RADZ FEW022 BKN030 BKN060 09/08 Q1008 RERA REDZ BLU -RA -DZ W (260°) 15.0mph 9°C 8°C
12/01/19 15:50 EGQS 121550Z 27015KT 4000 -RADZ BKN015 BKN028 BKN038 09/07 Q1008 GRN -RA -DZ W (270°) 17.3mph 9°C 7°C
12/01/19 14:50 EGQS 121450Z 26019KT 9999 VCSH FEW022 BKN028 BKN035 09/06 Q1008 BLU VCSH W (260°) 21.9mph 9°C 6°C
12/01/19 13:50 EGQS 121350Z 26018KT 9999 7000W -SHRA BKN022 BKN038 08/06 Q1009 WHT -SHRA W (260°) 20.7mph 8°C 6°C
12/01/19 12:50 EGQS 121250Z 27015KT 9999 VCSH BKN026 BKN040 BKN100 09/05 Q1010 BLU VCSH W (270°) 17.3mph 9°C 5°C
12/01/19 11:50 EGQS 121150Z 26019KT 9999 VCSH BKN026 BKN042 BKN100 09/05 Q1010 BLU VCSH W (260°) 21.9mph 9°C 5°C
12/01/19 10:50 EGQS 121050Z 27017KT 9999 VCSH FEW022 BKN027 BKN050 09/05 Q1010 BLU VCSH W (270°) 19.6mph 9°C 5°C
12/01/19 09:50 EGQS 120950Z 27020KT 9999 -SHRA BKN023 BKN036 08/05 Q1011 WHT -SHRA W (270°) 23.0mph 8°C 5°C
12/01/19 08:50 EGQS 120850Z 27018KT 9999 VCSH FEW024 BKN026 BKN036 08/05 Q1011 BLU VCSH W (270°) 20.7mph 8°C 5°C
12/01/19 07:50 EGQS 120750Z 26015KT 9999 -SHRA SCT025 BKN033 BKN060 08/05 Q1011 BLU -SHRA W (260°) 17.3mph 8°C 5°C
12/01/19 06:50 EGQS 120650Z 26011KT 9999 FEW023 SCT026 BKN040 07/05 Q1011 BLU W (260°) 12.7mph 7°C 5°C
12/01/19 05:50 EGQS 120550Z 27014KT 9999 -SHRA SCT023 BKN030 07/05 Q1011 WHT -SHRA W (270°) 16.1mph 7°C 5°C
12/01/19 04:50 EGQS 120450Z 27013KT 9999 SCT028 BKN038 07/05 Q1012 BLU W (270°) 15.0mph 7°C 5°C
12/01/19 03:50 EGQS 120350Z 26013KT 9999 FEW023 SCT029 BKN048 07/05 Q1012 BLU W (260°) 15.0mph 7°C 5°C
12/01/19 02:50 EGQS 120250Z 26016KT 9999 -SHRA SCT024 BKN036 08/05 Q1012 WHT -SHRA W (260°) 18.4mph 8°C 5°C
12/01/19 01:50 EGQS 120150Z 26019KT 9999 -SHRA FEW036 SCT048 08/05 Q1012 BLU -SHRA W (260°) 21.9mph 8°C 5°C
12/01/19 00:50 EGQS 120050Z 26018KT 9999 BKN034 08/05 Q1013 BLU W (260°) 20.7mph 8°C 5°C
11/01/19 23:50 EGQS 112350Z 26016KT 9999 FEW030 08/07 Q1013 BLU W (260°) 18.4mph 8°C 7°C
11/01/19 22:50 EGQS 112250Z 22011KT 9999 FEW022 SCT032 BKN080 08/05 Q1014 BLU SW (220°) 12.7mph 8°C 5°C
11/01/19 21:50 EGQS 112150Z 22010KT 9999 SCT030 08/04 Q1015 BLU SW (220°) 11.5mph 8°C 4°C
11/01/19 20:50 EGQS 112050Z 22009KT 9999 FEW035 BKN039 08/05 Q1018 BLU SW (220°) 10.4mph 8°C 5°C
11/01/19 19:50 EGQS 111950Z 23009KT 9999 FEW023 BKN027 BKN037 08/05 Q1019 BLU SW (230°) 10.4mph 8°C 5°C
11/01/19 18:50 EGQS 111850Z 22008KT 9999 BKN035 08/06 Q1021 BLU SW (220°) 9.2mph 8°C 6°C
11/01/19 17:50 EGQS 111750Z 22006KT 9999 FEW030 BKN038 08/05 Q1021 BLU SW (220°) 6.9mph 8°C 5°C
11/01/19 16:50 EGQS 111650Z 23006KT 9999 BKN039 08/06 Q1023 BLU TEMPO SCT020 WHT SW (230°) 6.9mph 8°C 6°C
11/01/19 15:50 EGQS 111550Z 28006KT 9999 SCT016 BKN028 08/06 Q1024 WHT TEMPO 7000 -SHRA WHT W (280°) 6.9mph 8°C 6°C
11/01/19 14:50 EGQS 111450Z 26008KT 9999 -SHRA FEW010 SCT022 BKN038 08/06 Q1024 WHT TEMPO FEW022 BLU -SHRA W (260°) 9.2mph 8°C 6°C
11/01/19 13:50 EGQS 111350Z 26008KT 9999 -SHRA SCT024 BKN037 09/06 Q1025 WHT TEMPO FEW024 BLU -SHRA W (260°) 9.2mph 9°C 6°C
11/01/19 12:50 EGQS 111250Z 25008KT 9999 FEW025 BKN032 08/06 Q1026 BLU TEMPO SCT020 WHT WSW (250°) 9.2mph 8°C 6°C
11/01/19 11:50 EGQS 111150Z 25009KT 9999 FEW020 BKN037 08/07 Q1026 BLU TEMPO SCT020 WHT WSW (250°) 10.4mph 8°C 7°C
11/01/19 10:50 EGQS 111050Z 26010KT 9999 -SHRA FEW010 BKN038 08/07 Q1027 BLU TEMPO 4000 -SHRA SCT010 BKN015 GRN -SHRA W (260°) 11.5mph 8°C 7°C
11/01/19 10:36 EGQS 111036Z 26012KT 9999 FEW003 BKN030 08/07 Q1027 BLU TEMPO 4000 -SHRA SCT012 BKN020 GRN W (260°) 13.8mph 8°C 7°C
11/01/19 10:03 EGQS 111003Z 26012KT 9999 4000S -SHRA SCT016 BKN028 07/07 Q1027 GRN TEMPO 9999 NSW FEW016 BLU -SHRA W (260°) 13.8mph 7°C 7°C
11/01/19 09:11 EGQS 110911Z 27013KT 9999 -SHRA SCT022 BKN040 08/05 Q1027 WHT TEMPO FEW022 BLU -SHRA W (270°) 15.0mph 8°C 5°C
11/01/19 07:50 EGQS 110750Z 27011KT 9999 BKN022 08/05 Q1028 WHT TEMPO FEW022 BLU W (270°) 12.7mph 8°C 5°C
11/01/19 06:50 EGQS 110650Z 26008KT 9999 -RA FEW024 BKN026 BKN045 08/05 Q1027 BLU NOSIG -RA W (260°) 9.2mph 8°C 5°C
11/01/19 05:50 EGQS 110550Z 27011KT 9999 FEW023 BKN035 BKN040 08/04 Q1027 BLU W (270°) 12.7mph 8°C 4°C
11/01/19 04:50 EGQS 110450Z 28010KT 9999 -SHRA BKN024 BKN035 08/06 Q1028 WHT -SHRA W (280°) 11.5mph 8°C 6°C
11/01/19 03:50 EGQS 110350Z 28015KT 9999 FEW016 BKN035 08/05 Q1029 BLU W (280°) 17.3mph 8°C 5°C
11/01/19 02:50 EGQS 110250Z 28015KT 9999 -RA FEW016 BKN020 OVC035 08/06 Q1028 WHT -RA W (280°) 17.3mph 8°C 6°C
11/01/19 01:50 EGQS 110150Z 27011KT 9999 FEW025 BKN035 OVC040 08/05 Q1028 BLU W (270°) 12.7mph 8°C 5°C
11/01/19 00:50 EGQS 110050Z 28011KT 9999 SCT022 BKN035 08/05 Q1028 WHT W (280°) 12.7mph 8°C 5°C
10/01/19 23:50 EGQS 102350Z 28011KT 9999 SCT030 OVC040 09/05 Q1028 BLU W (280°) 12.7mph 9°C 5°C
10/01/19 22:50 EGQS 102250Z 28015KT 9999 FEW030 OVC035 09/05 Q1028 BLU W (280°) 17.3mph 9°C 5°C
10/01/19 21:50 EGQS 102150Z 27014KT 9999 FEW025 BKN035 OVC040 09/06 Q1028 BLU W (270°) 16.1mph 9°C 6°C
10/01/19 20:50 EGQS 102050Z 27015KT 9999 SCT035 BKN045 09/05 Q1028 BLU W (270°) 17.3mph 9°C 5°C
10/01/19 19:50 EGQS 101950Z 28013KT 9999 FEW023 BKN028 BKN035 09/05 Q1028 BLU W (280°) 15.0mph 9°C 5°C
10/01/19 18:50 EGQS 101850Z 25011KT 9999 FEW020 BKN032 08/05 Q1027 BLU TEMPO 7000 -RADZ SCT020 WHT WSW (250°) 12.7mph 8°C 5°C
10/01/19 17:50 EGQS 101750Z 25009KT 9999 FEW025 BKN040 08/05 Q1027 BLU TEMPO 5000 -RADZ SCT022 WHT WSW (250°) 10.4mph 8°C 5°C
10/01/19 16:50 EGQS 101650Z 25011KT 9999 FEW024 BKN040 08/06 Q1027 BLU TEMPO 5000 -RADZ SCT022 WHT WSW (250°) 12.7mph 8°C 6°C
10/01/19 15:50 EGQS 101550Z 27010KT 9999 SCT024 BKN040 08/06 Q1027 WHT TEMPO 5000 -RADZ WHT W (270°) 11.5mph 8°C 6°C
10/01/19 15:41 EGQS 101541Z 27010KT 9999 SCT024 BKN040 08/06 Q1027 WHT TEMPO 5000 -RADZ WHT W (270°) 11.5mph 8°C 6°C
10/01/19 14:50 EGQS 101450Z 25009KT 9999 FEW025 BKN050 08/06 Q1027 BLU NOSIG WSW (250°) 10.4mph 8°C 6°C
10/01/19 13:50 EGQS 101350Z 25012KT 9999 FEW030 BKN055 08/06 Q1027 BLU NOSIG WSW (250°) 13.8mph 8°C 6°C
10/01/19 12:50 EGQS 101250Z 27012KT 9999 -SHRA FEW015 BKN036 08/06 Q1028 BLU TEMPO 7000 -RADZ SCT015 WHT -SHRA W (270°) 13.8mph 8°C 6°C
10/01/19 11:50 EGQS 101150Z 26009KT 9999 -SHRA SCT025 BKN050 09/07 Q1028 BLU TEMPO 5000 -RADZ SCT022 WHT -SHRA W (260°) 10.4mph 9°C 7°C